sensor_id;sensor_type;location;lat;lon;timestamp;temperature;humidity
34837;DHT22;21053;50.848;4.652;2022-11-20T00:01:17;5.90;99.90
34837;DHT22;21053;50.848;4.652;2022-11-20T00:03:46;5.80;99.90
34837;DHT22;21053;50.848;4.652;2022-11-20T00:06:14;5.80;99.90
34837;DHT22;21053;50.848;4.652;2022-11-20T00:08:41;5.70;99.90
34837;DHT22;21053;50.848;4.652;2022-11-20T00:11:16;5.60;99.90
34837;DHT22;21053;50.848;4.652;2022-11-20T00:13:46;5.50;99.90
34837;DHT22;21053;50.848;4.652;2022-11-20T00:16:15;5.60;99.90
34837;DHT22;21053;50.848;4.652;2022-11-20T00:18:47;5.50;99.90
34837;DHT22;21053;50.848;4.652;2022-11-20T00:21:18;5.60;99.90
34837;DHT22;21053;50.848;4.652;2022-11-20T00:23:45;5.70;99.90
34837;DHT22;21053;50.848;4.652;2022-11-20T00:26:15;7.50;99.90
34837;DHT22;21053;50.848;4.652;2022-11-20T00:28:43;5.60;99.90
34837;DHT22;21053;50.848;4.652;2022-11-20T00:31:14;5.60;99.90
34837;DHT22;21053;50.848;4.652;2022-11-20T00:33:41;5.80;99.90
34837;DHT22;21053;50.848;4.652;2022-11-20T00:36:19;5.80;99.90
34837;DHT22;21053;50.848;4.652;2022-11-20T00:38:51;5.80;99.90
34837;DHT22;21053;50.848;4.652;2022-11-20T00:41:16;5.80;99.90
34837;DHT22;21053;50.848;4.652;2022-11-20T00:43:44;6.20;99.90
34837;DHT22;21053;50.848;4.652;2022-11-20T00:46:16;5.90;99.90
34837;DHT22;21053;50.848;4.652;2022-11-20T00:48:44;5.80;99.90
34837;DHT22;21053;50.848;4.652;2022-11-20T00:51:12;5.90;99.90
34837;DHT22;21053;50.848;4.652;2022-11-20T00:53:39;5.90;99.90
34837;DHT22;21053;50.848;4.652;2022-11-20T00:56:07;6.00;99.90
34837;DHT22;21053;50.848;4.652;2022-11-20T00:58:37;5.80;99.90
34837;DHT22;21053;50.848;4.652;2022-11-20T01:01:06;5.90;99.90
34837;DHT22;21053;50.848;4.652;2022-11-20T01:03:37;5.90;99.90
34837;DHT22;21053;50.848;4.652;2022-11-20T01:06:10;6.50;99.90
34837;DHT22;21053;50.848;4.652;2022-11-20T01:08:39;5.90;99.90
34837;DHT22;21053;50.848;4.652;2022-11-20T01:11:09;5.90;99.90
34837;DHT22;21053;50.848;4.652;2022-11-20T01:13:40;5.90;99.90
34837;DHT22;21053;50.848;4.652;2022-11-20T01:16:19;5.90;99.90
34837;DHT22;21053;50.848;4.652;2022-11-20T01:18:49;5.80;99.90
34837;DHT22;21053;50.848;4.652;2022-11-20T01:21:21;5.80;99.90
34837;DHT22;21053;50.848;4.652;2022-11-20T01:23:48;5.80;99.90
34837;DHT22;21053;50.848;4.652;2022-11-20T01:26:19;5.90;99.90
34837;DHT22;21053;50.848;4.652;2022-11-20T01:28:47;5.90;99.90
34837;DHT22;21053;50.848;4.652;2022-11-20T01:31:35;5.80;99.90
34837;DHT22;21053;50.848;4.652;2022-11-20T01:34:06;5.80;99.90
34837;DHT22;21053;50.848;4.652;2022-11-20T01:36:36;5.80;99.90
34837;DHT22;21053;50.848;4.652;2022-11-20T01:39:09;5.90;99.90
34837;DHT22;21053;50.848;4.652;2022-11-20T01:41:35;5.80;99.90
34837;DHT22;21053;50.848;4.652;2022-11-20T01:44:40;5.80;99.90
34837;DHT22;21053;50.848;4.652;2022-11-20T01:47:12;5.70;99.90
34837;DHT22;21053;50.848;4.652;2022-11-20T01:49:46;7.40;99.90
34837;DHT22;21053;50.848;4.652;2022-11-20T01:52:21;5.70;99.90
34837;DHT22;21053;50.848;4.652;2022-11-20T01:55:09;5.70;99.90
34837;DHT22;21053;50.848;4.652;2022-11-20T01:57:45;5.70;99.90
34837;DHT22;21053;50.848;4.652;2022-11-20T02:00:14;5.70;99.90
34837;DHT22;21053;50.848;4.652;2022-11-20T02:02:56;5.80;99.90
34837;DHT22;21053;50.848;4.652;2022-11-20T02:05:44;5.80;99.90
34837;DHT22;21053;50.848;4.652;2022-11-20T02:08:15;5.70;99.90
34837;DHT22;21053;50.848;4.652;2022-11-20T02:10:42;5.80;99.90
34837;DHT22;21053;50.848;4.652;2022-11-20T02:13:08;5.80;99.90
34837;DHT22;21053;50.848;4.652;2022-11-20T02:15:55;5.90;99.90
34837;DHT22;21053;50.848;4.652;2022-11-20T02:18:24;5.90;99.90
34837;DHT22;21053;50.848;4.652;2022-11-20T02:20:59;5.80;99.90
34837;DHT22;21053;50.848;4.652;2022-11-20T02:23:28;5.70;99.90
34837;DHT22;21053;50.848;4.652;2022-11-20T02:25:57;5.80;99.90
34837;DHT22;21053;50.848;4.652;2022-11-20T02:28:24;5.80;99.90
34837;DHT22;21053;50.848;4.652;2022-11-20T02:30:50;5.90;99.90
34837;DHT22;21053;50.848;4.652;2022-11-20T02:33:19;5.90;99.90
34837;DHT22;21053;50.848;4.652;2022-11-20T02:35:51;6.00;99.90
34837;DHT22;21053;50.848;4.652;2022-11-20T02:38:19;5.90;99.90
34837;DHT22;21053;50.848;4.652;2022-11-20T02:40:45;5.90;99.90
34837;DHT22;21053;50.848;4.652;2022-11-20T02:43:11;5.90;99.90
34837;DHT22;21053;50.848;4.652;2022-11-20T02:45:40;5.90;99.90
34837;DHT22;21053;50.848;4.652;2022-11-20T02:48:09;6.00;99.90
34837;DHT22;21053;50.848;4.652;2022-11-20T02:50:41;6.00;99.90
34837;DHT22;21053;50.848;4.652;2022-11-20T02:53:08;5.90;99.90
34837;DHT22;21053;50.848;4.652;2022-11-20T02:55:34;5.90;99.90
34837;DHT22;21053;50.848;4.652;2022-11-20T02:57:59;5.90;99.90
34837;DHT22;21053;50.848;4.652;2022-11-20T03:00:28;5.90;99.90
34837;DHT22;21053;50.848;4.652;2022-11-20T03:02:55;5.90;99.90
34837;DHT22;21053;50.848;4.652;2022-11-20T03:05:21;5.80;99.90
34837;DHT22;21053;50.848;4.652;2022-11-20T03:07:48;5.90;99.90
34837;DHT22;21053;50.848;4.652;2022-11-20T03:10:17;5.90;99.90
34837;DHT22;21053;50.848;4.652;2022-11-20T03:12:43;5.80;99.90
34837;DHT22;21053;50.848;4.652;2022-11-20T03:15:12;5.90;99.90
34837;DHT22;21053;50.848;4.652;2022-11-20T03:17:38;5.80;99.90
34837;DHT22;21053;50.848;4.652;2022-11-20T03:20:07;5.90;99.90
34837;DHT22;21053;50.848;4.652;2022-11-20T03:22:34;5.90;99.90
34837;DHT22;21053;50.848;4.652;2022-11-20T03:25:03;6.00;99.90
34837;DHT22;21053;50.848;4.652;2022-11-20T03:27:35;6.00;99.90
34837;DHT22;21053;50.848;4.652;2022-11-20T03:30:04;6.00;99.90
34837;DHT22;21053;50.848;4.652;2022-11-20T03:32:31;5.80;99.90
34837;DHT22;21053;50.848;4.652;2022-11-20T03:34:57;5.80;99.90
34837;DHT22;21053;50.848;4.652;2022-11-20T03:37:38;5.80;99.90
34837;DHT22;21053;50.848;4.652;2022-11-20T03:40:05;5.90;99.90
34837;DHT22;21053;50.848;4.652;2022-11-20T03:42:34;5.80;99.90
34837;DHT22;21053;50.848;4.652;2022-11-20T03:45:13;5.80;99.90
34837;DHT22;21053;50.848;4.652;2022-11-20T03:47:40;5.90;99.90
34837;DHT22;21053;50.848;4.652;2022-11-20T03:50:07;6.00;99.90
34837;DHT22;21053;50.848;4.652;2022-11-20T03:52:35;6.00;99.90
34837;DHT22;21053;50.848;4.652;2022-11-20T03:55:03;6.00;99.90
34837;DHT22;21053;50.848;4.652;2022-11-20T03:57:31;6.00;99.90
34837;DHT22;21053;50.848;4.652;2022-11-20T03:59:58;5.90;99.90
34837;DHT22;21053;50.848;4.652;2022-11-20T04:02:27;5.90;99.90
34837;DHT22;21053;50.848;4.652;2022-11-20T04:04:52;6.00;99.90
34837;DHT22;21053;50.848;4.652;2022-11-20T04:07:21;6.00;99.90
34837;DHT22;21053;50.848;4.652;2022-11-20T04:09:48;6.00;99.90
34837;DHT22;21053;50.848;4.652;2022-11-20T04:12:14;6.10;99.90
34837;DHT22;21053;50.848;4.652;2022-11-20T04:14:41;6.10;99.90
34837;DHT22;21053;50.848;4.652;2022-11-20T04:17:10;6.10;99.90
34837;DHT22;21053;50.848;4.652;2022-11-20T04:19:35;6.40;99.90
34837;DHT22;21053;50.848;4.652;2022-11-20T04:22:02;6.00;99.90
34837;DHT22;21053;50.848;4.652;2022-11-20T04:24:31;6.10;99.90
34837;DHT22;21053;50.848;4.652;2022-11-20T04:27:00;6.10;99.90
34837;DHT22;21053;50.848;4.652;2022-11-20T04:29:28;6.10;99.90
34837;DHT22;21053;50.848;4.652;2022-11-20T04:31:56;6.10;99.90
34837;DHT22;21053;50.848;4.652;2022-11-20T04:34:25;6.10;99.90
34837;DHT22;21053;50.848;4.652;2022-11-20T04:36:53;6.00;99.90
34837;DHT22;21053;50.848;4.652;2022-11-20T04:39:22;6.00;99.90
34837;DHT22;21053;50.848;4.652;2022-11-20T04:41:48;6.10;99.90
34837;DHT22;21053;50.848;4.652;2022-11-20T04:44:34;6.10;99.90
34837;DHT22;21053;50.848;4.652;2022-11-20T04:47:03;6.10;99.90
34837;DHT22;21053;50.848;4.652;2022-11-20T04:49:32;6.10;99.90
34837;DHT22;21053;50.848;4.652;2022-11-20T04:52:02;6.00;99.90
34837;DHT22;21053;50.848;4.652;2022-11-20T04:54:27;6.10;99.90
34837;DHT22;21053;50.848;4.652;2022-11-20T04:56:56;6.10;99.90
34837;DHT22;21053;50.848;4.652;2022-11-20T04:59:25;6.00;99.90
34837;DHT22;21053;50.848;4.652;2022-11-20T05:01:53;6.10;99.90
34837;DHT22;21053;50.848;4.652;2022-11-20T05:04:18;6.10;99.90
34837;DHT22;21053;50.848;4.652;2022-11-20T05:06:47;6.10;99.90
34837;DHT22;21053;50.848;4.652;2022-11-20T05:09:15;6.00;99.90
34837;DHT22;21053;50.848;4.652;2022-11-20T05:11:47;6.00;99.90
34837;DHT22;21053;50.848;4.652;2022-11-20T05:14:14;6.00;99.90
34837;DHT22;21053;50.848;4.652;2022-11-20T05:16:39;6.00;99.90
34837;DHT22;21053;50.848;4.652;2022-11-20T05:19:06;6.00;99.90
34837;DHT22;21053;50.848;4.652;2022-11-20T05:21:37;6.00;99.90
34837;DHT22;21053;50.848;4.652;2022-11-20T05:24:03;6.10;99.90
34837;DHT22;21053;50.848;4.652;2022-11-20T05:26:32;6.00;99.90
34837;DHT22;21053;50.848;4.652;2022-11-20T05:29:02;6.00;99.90
34837;DHT22;21053;50.848;4.652;2022-11-20T05:31:30;6.90;99.90
34837;DHT22;21053;50.848;4.652;2022-11-20T05:33:59;7.90;99.90
34837;DHT22;21053;50.848;4.652;2022-11-20T05:36:25;6.00;99.90
34837;DHT22;21053;50.848;4.652;2022-11-20T05:38:51;6.00;99.90
34837;DHT22;21053;50.848;4.652;2022-11-20T05:41:19;6.10;99.90
34837;DHT22;21053;50.848;4.652;2022-11-20T05:43:50;6.10;99.90
34837;DHT22;21053;50.848;4.652;2022-11-20T05:46:19;6.10;99.90
34837;DHT22;21053;50.848;4.652;2022-11-20T05:48:48;6.20;99.90
34837;DHT22;21053;50.848;4.652;2022-11-20T05:51:17;6.10;99.90
34837;DHT22;21053;50.848;4.652;2022-11-20T05:56:14;6.20;99.90
34837;DHT22;21053;50.848;4.652;2022-11-20T05:58:41;6.20;99.90
34837;DHT22;21053;50.848;4.652;2022-11-20T06:01:17;6.10;99.90
34837;DHT22;21053;50.848;4.652;2022-11-20T06:03:44;6.10;99.90
34837;DHT22;21053;50.848;4.652;2022-11-20T06:06:15;6.20;99.90
34837;DHT22;21053;50.848;4.652;2022-11-20T06:08:41;6.10;99.90
34837;DHT22;21053;50.848;4.652;2022-11-20T06:11:09;6.10;99.90
34837;DHT22;21053;50.848;4.652;2022-11-20T06:13:38;6.10;99.90
34837;DHT22;21053;50.848;4.652;2022-11-20T06:16:05;6.10;99.90
34837;DHT22;21053;50.848;4.652;2022-11-20T06:18:34;6.20;99.90
34837;DHT22;21053;50.848;4.652;2022-11-20T06:21:08;6.10;99.90
34837;DHT22;21053;50.848;4.652;2022-11-20T06:23:35;6.20;99.90
34837;DHT22;21053;50.848;4.652;2022-11-20T06:26:06;6.20;99.90
34837;DHT22;21053;50.848;4.652;2022-11-20T06:28:35;6.20;99.90
34837;DHT22;21053;50.848;4.652;2022-11-20T06:31:04;6.10;99.90
34837;DHT22;21053;50.848;4.652;2022-11-20T06:33:31;6.10;99.90
34837;DHT22;21053;50.848;4.652;2022-11-20T06:36:01;6.10;99.90
34837;DHT22;21053;50.848;4.652;2022-11-20T06:38:28;6.10;99.90
34837;DHT22;21053;50.848;4.652;2022-11-20T06:40:57;6.10;99.90
34837;DHT22;21053;50.848;4.652;2022-11-20T06:43:28;7.40;99.90
34837;DHT22;21053;50.848;4.652;2022-11-20T06:45:56;6.10;99.90
34837;DHT22;21053;50.848;4.652;2022-11-20T06:48:28;6.10;99.90
34837;DHT22;21053;50.848;4.652;2022-11-20T06:50:55;6.10;99.90
34837;DHT22;21053;50.848;4.652;2022-11-20T06:53:23;6.10;99.90
34837;DHT22;21053;50.848;4.652;2022-11-20T06:55:50;6.10;99.90
34837;DHT22;21053;50.848;4.652;2022-11-20T06:58:18;6.20;99.90
34837;DHT22;21053;50.848;4.652;2022-11-20T07:00:45;6.20;99.90
34837;DHT22;21053;50.848;4.652;2022-11-20T07:03:14;6.20;99.90
34837;DHT22;21053;50.848;4.652;2022-11-20T07:05:42;6.20;99.90
34837;DHT22;21053;50.848;4.652;2022-11-20T07:08:10;6.20;99.90
34837;DHT22;21053;50.848;4.652;2022-11-20T07:10:41;6.20;99.90
34837;DHT22;21053;50.848;4.652;2022-11-20T07:13:10;6.20;99.90
34837;DHT22;21053;50.848;4.652;2022-11-20T07:15:39;6.30;99.90
34837;DHT22;21053;50.848;4.652;2022-11-20T07:18:07;6.30;99.90
34837;DHT22;21053;50.848;4.652;2022-11-20T07:20:39;6.30;99.90
34837;DHT22;21053;50.848;4.652;2022-11-20T07:23:06;6.30;99.90
34837;DHT22;21053;50.848;4.652;2022-11-20T07:25:32;6.40;99.90
34837;DHT22;21053;50.848;4.652;2022-11-20T07:28:01;6.40;99.90
34837;DHT22;21053;50.848;4.652;2022-11-20T07:30:33;6.40;99.90
34837;DHT22;21053;50.848;4.652;2022-11-20T07:33:02;6.50;99.90
34837;DHT22;21053;50.848;4.652;2022-11-20T07:35:29;6.50;99.90
34837;DHT22;21053;50.848;4.652;2022-11-20T07:37:57;6.60;99.90
34837;DHT22;21053;50.848;4.652;2022-11-20T07:40:25;6.60;99.90
34837;DHT22;21053;50.848;4.652;2022-11-20T07:42:53;6.60;99.90
34837;DHT22;21053;50.848;4.652;2022-11-20T07:45:24;6.60;99.90
34837;DHT22;21053;50.848;4.652;2022-11-20T07:47:52;6.60;99.90
34837;DHT22;21053;50.848;4.652;2022-11-20T07:50:21;7.30;99.90
34837;DHT22;21053;50.848;4.652;2022-11-20T07:52:47;6.80;99.90
34837;DHT22;21053;50.848;4.652;2022-11-20T07:55:16;6.80;99.90
34837;DHT22;21053;50.848;4.652;2022-11-20T07:57:45;6.80;99.90
34837;DHT22;21053;50.848;4.652;2022-11-20T08:00:12;6.80;99.90
34837;DHT22;21053;50.848;4.652;2022-11-20T08:02:41;6.80;99.90
34837;DHT22;21053;50.848;4.652;2022-11-20T08:05:08;6.90;99.90
34837;DHT22;21053;50.848;4.652;2022-11-20T08:07:42;6.90;99.90
34837;DHT22;21053;50.848;4.652;2022-11-20T08:10:11;7.00;99.90
34837;DHT22;21053;50.848;4.652;2022-11-20T08:12:49;7.00;99.90
34837;DHT22;21053;50.848;4.652;2022-11-20T08:15:37;6.80;99.90
34837;DHT22;21053;50.848;4.652;2022-11-20T08:18:10;6.90;99.90
34837;DHT22;21053;50.848;4.652;2022-11-20T08:20:39;7.00;99.90
34837;DHT22;21053;50.848;4.652;2022-11-20T08:23:08;7.10;99.90
34837;DHT22;21053;50.848;4.652;2022-11-20T08:25:37;7.10;99.90
34837;DHT22;21053;50.848;4.652;2022-11-20T08:28:07;7.20;99.90
34837;DHT22;21053;50.848;4.652;2022-11-20T08:30:38;7.20;99.90
34837;DHT22;21053;50.848;4.652;2022-11-20T08:33:06;7.30;99.90
34837;DHT22;21053;50.848;4.652;2022-11-20T08:35:45;7.30;99.90
34837;DHT22;21053;50.848;4.652;2022-11-20T08:38:12;7.30;99.90
34837;DHT22;21053;50.848;4.652;2022-11-20T08:40:40;7.40;99.90
34837;DHT22;21053;50.848;4.652;2022-11-20T08:43:05;7.50;99.90
34837;DHT22;21053;50.848;4.652;2022-11-20T08:45:31;7.50;99.90
34837;DHT22;21053;50.848;4.652;2022-11-20T08:48:01;7.60;99.90
34837;DHT22;21053;50.848;4.652;2022-11-20T08:50:29;7.60;99.90
34837;DHT22;21053;50.848;4.652;2022-11-20T08:53:06;7.60;99.90
34837;DHT22;21053;50.848;4.652;2022-11-20T08:55:33;7.60;99.90
34837;DHT22;21053;50.848;4.652;2022-11-20T08:58:05;7.50;99.90
34837;DHT22;21053;50.848;4.652;2022-11-20T09:00:33;7.60;99.90
34837;DHT22;21053;50.848;4.652;2022-11-20T09:03:00;7.60;99.90
34837;DHT22;21053;50.848;4.652;2022-11-20T09:05:28;7.70;99.90
34837;DHT22;21053;50.848;4.652;2022-11-20T09:07:59;7.80;99.90
34837;DHT22;21053;50.848;4.652;2022-11-20T09:10:27;7.80;99.90
34837;DHT22;21053;50.848;4.652;2022-11-20T09:12:54;7.90;99.90
34837;DHT22;21053;50.848;4.652;2022-11-20T09:15:24;7.90;99.90
34837;DHT22;21053;50.848;4.652;2022-11-20T09:18:01;7.90;99.90
34837;DHT22;21053;50.848;4.652;2022-11-20T09:20:31;7.90;99.90
34837;DHT22;21053;50.848;4.652;2022-11-20T09:22:57;8.00;99.90
34837;DHT22;21053;50.848;4.652;2022-11-20T09:25:24;8.10;99.90
34837;DHT22;21053;50.848;4.652;2022-11-20T09:27:59;8.10;99.90
34837;DHT22;21053;50.848;4.652;2022-11-20T09:30:25;8.10;99.90
34837;DHT22;21053;50.848;4.652;2022-11-20T09:32:54;8.30;99.90
34837;DHT22;21053;50.848;4.652;2022-11-20T09:35:21;8.40;99.90
34837;DHT22;21053;50.848;4.652;2022-11-20T09:37:50;8.40;99.90
34837;DHT22;21053;50.848;4.652;2022-11-20T09:40:28;8.40;99.90
34837;DHT22;21053;50.848;4.652;2022-11-20T09:43:16;8.50;99.90
34837;DHT22;21053;50.848;4.652;2022-11-20T09:46:08;8.60;99.90
34837;DHT22;21053;50.848;4.652;2022-11-20T09:48:48;8.60;99.90
34837;DHT22;21053;50.848;4.652;2022-11-20T09:51:46;8.60;99.90
34837;DHT22;21053;50.848;4.652;2022-11-20T09:56:42;8.70;99.90
34837;DHT22;21053;50.848;4.652;2022-11-20T10:05:17;8.90;99.90
34837;DHT22;21053;50.848;4.652;2022-11-20T10:10:44;9.10;99.90
34837;DHT22;21053;50.848;4.652;2022-11-20T10:22:03;9.10;99.90
34837;DHT22;21053;50.848;4.652;2022-11-20T10:24:43;9.10;99.90
34837;DHT22;21053;50.848;4.652;2022-11-20T10:30:15;9.30;99.90
34837;DHT22;21053;50.848;4.652;2022-11-20T10:32:59;9.40;99.90
34837;DHT22;21053;50.848;4.652;2022-11-20T10:35:39;9.50;99.90
34837;DHT22;21053;50.848;4.652;2022-11-20T10:38:15;9.50;99.90
34837;DHT22;21053;50.848;4.652;2022-11-20T10:40:52;9.50;99.90
34837;DHT22;21053;50.848;4.652;2022-11-20T10:43:23;9.60;99.90
34837;DHT22;21053;50.848;4.652;2022-11-20T10:46:06;9.70;99.90
34837;DHT22;21053;50.848;4.652;2022-11-20T10:48:43;9.70;99.90
34837;DHT22;21053;50.848;4.652;2022-11-20T10:54:12;10.00;99.90
34837;DHT22;21053;50.848;4.652;2022-11-20T10:56:47;10.10;99.90
34837;DHT22;21053;50.848;4.652;2022-11-20T10:59:50;10.40;99.90
34837;DHT22;21053;50.848;4.652;2022-11-20T11:02:21;10.60;99.90
34837;DHT22;21053;50.848;4.652;2022-11-20T11:04:51;10.80;99.90
34837;DHT22;21053;50.848;4.652;2022-11-20T11:07:27;11.00;99.90
34837;DHT22;21053;50.848;4.652;2022-11-20T11:09:57;11.00;99.90
34837;DHT22;21053;50.848;4.652;2022-11-20T11:12:28;11.00;99.90
34837;DHT22;21053;50.848;4.652;2022-11-20T11:14:56;11.00;99.90
34837;DHT22;21053;50.848;4.652;2022-11-20T11:17:31;11.30;99.90
34837;DHT22;21053;50.848;4.652;2022-11-20T11:22:32;11.30;99.90
34837;DHT22;21053;50.848;4.652;2022-11-20T11:24:59;11.20;99.90
34837;DHT22;21053;50.848;4.652;2022-11-20T11:27:25;11.10;99.90
34837;DHT22;21053;50.848;4.652;2022-11-20T11:30:12;11.10;99.90
34837;DHT22;21053;50.848;4.652;2022-11-20T11:32:42;11.10;99.90
34837;DHT22;21053;50.848;4.652;2022-11-20T11:35:28;11.10;99.90
34837;DHT22;21053;50.848;4.652;2022-11-20T11:38:14;11.10;99.90
34837;DHT22;21053;50.848;4.652;2022-11-20T11:40:40;11.10;99.90
34837;DHT22;21053;50.848;4.652;2022-11-20T11:43:18;11.10;99.90
34837;DHT22;21053;50.848;4.652;2022-11-20T11:46:20;11.10;99.90
34837;DHT22;21053;50.848;4.652;2022-11-20T11:48:59;10.90;99.90
34837;DHT22;21053;50.848;4.652;2022-11-20T11:51:31;11.00;99.90
34837;DHT22;21053;50.848;4.652;2022-11-20T11:54:00;10.90;99.90
34837;DHT22;21053;50.848;4.652;2022-11-20T11:56:29;10.90;99.90
34837;DHT22;21053;50.848;4.652;2022-11-20T11:58:57;10.90;99.90
34837;DHT22;21053;50.848;4.652;2022-11-20T12:01:44;10.90;99.90
34837;DHT22;21053;50.848;4.652;2022-11-20T12:04:45;10.90;99.90
34837;DHT22;21053;50.848;4.652;2022-11-20T12:10:00;10.70;99.90
34837;DHT22;21053;50.848;4.652;2022-11-20T12:12:32;10.70;99.90
34837;DHT22;21053;50.848;4.652;2022-11-20T12:14:58;10.80;99.90
34837;DHT22;21053;50.848;4.652;2022-11-20T12:17:27;10.60;99.90
34837;DHT22;21053;50.848;4.652;2022-11-20T12:19:54;10.60;99.90
34837;DHT22;21053;50.848;4.652;2022-11-20T12:25:18;10.50;99.90
34837;DHT22;21053;50.848;4.652;2022-11-20T12:30:41;10.30;99.90
34837;DHT22;21053;50.848;4.652;2022-11-20T12:44:41;10.00;99.90
34837;DHT22;21053;50.848;4.652;2022-11-20T12:53:43;10.00;99.90
34837;DHT22;21053;50.848;4.652;2022-11-20T12:58:43;10.00;99.90
34837;DHT22;21053;50.848;4.652;2022-11-20T13:07:22;9.80;99.90
34837;DHT22;21053;50.848;4.652;2022-11-20T13:09:53;9.70;99.90
34837;DHT22;21053;50.848;4.652;2022-11-20T13:15:11;9.70;99.90
34837;DHT22;21053;50.848;4.652;2022-11-20T13:18:03;9.80;99.90
34837;DHT22;21053;50.848;4.652;2022-11-20T13:20:29;9.70;99.90
34837;DHT22;21053;50.848;4.652;2022-11-20T13:22:56;9.90;99.90
34837;DHT22;21053;50.848;4.652;2022-11-20T13:27:57;9.90;99.90
34837;DHT22;21053;50.848;4.652;2022-11-20T13:30:29;9.90;99.90
34837;DHT22;21053;50.848;4.652;2022-11-20T13:36:03;10.10;99.90
34837;DHT22;21053;50.848;4.652;2022-11-20T13:38:52;10.00;99.90
34837;DHT22;21053;50.848;4.652;2022-11-20T13:41:31;10.00;99.90
34837;DHT22;21053;50.848;4.652;2022-11-20T13:44:13;10.00;99.90
34837;DHT22;21053;50.848;4.652;2022-11-20T13:46:40;9.90;99.90
34837;DHT22;21053;50.848;4.652;2022-11-20T13:58:02;9.90;99.90
34837;DHT22;21053;50.848;4.652;2022-11-20T14:00:44;9.80;99.90
34837;DHT22;21053;50.848;4.652;2022-11-20T14:03:18;9.70;99.90
34837;DHT22;21053;50.848;4.652;2022-11-20T14:06:02;9.70;99.90
34837;DHT22;21053;50.848;4.652;2022-11-20T14:11:23;9.60;99.90
34837;DHT22;21053;50.848;4.652;2022-11-20T14:16:40;9.70;99.90
34837;DHT22;21053;50.848;4.652;2022-11-20T14:19:31;9.60;99.90
34837;DHT22;21053;50.848;4.652;2022-11-20T14:22:16;9.80;99.90
34837;DHT22;21053;50.848;4.652;2022-11-20T14:24:45;9.70;99.90
34837;DHT22;21053;50.848;4.652;2022-11-20T14:27:19;9.90;99.90
34837;DHT22;21053;50.848;4.652;2022-11-20T14:29:50;9.90;99.90
34837;DHT22;21053;50.848;4.652;2022-11-20T14:32:22;9.90;99.90
34837;DHT22;21053;50.848;4.652;2022-11-20T14:34:55;9.80;99.90
34837;DHT22;21053;50.848;4.652;2022-11-20T14:37:27;9.80;99.90
34837;DHT22;21053;50.848;4.652;2022-11-20T14:39:57;9.70;99.90
34837;DHT22;21053;50.848;4.652;2022-11-20T14:42:27;9.60;99.90
34837;DHT22;21053;50.848;4.652;2022-11-20T14:45:00;9.70;99.90
34837;DHT22;21053;50.848;4.652;2022-11-20T14:47:31;9.80;99.90
34837;DHT22;21053;50.848;4.652;2022-11-20T14:50:01;9.70;99.90
34837;DHT22;21053;50.848;4.652;2022-11-20T14:52:27;9.70;99.90
34837;DHT22;21053;50.848;4.652;2022-11-20T14:54:57;9.70;99.90
34837;DHT22;21053;50.848;4.652;2022-11-20T15:02:45;9.70;99.90
34837;DHT22;21053;50.848;4.652;2022-11-20T15:05:16;9.70;99.90
34837;DHT22;21053;50.848;4.652;2022-11-20T15:07:46;9.70;99.90
34837;DHT22;21053;50.848;4.652;2022-11-20T15:10:28;9.70;99.90
34837;DHT22;21053;50.848;4.652;2022-11-20T15:13:00;9.70;99.90
34837;DHT22;21053;50.848;4.652;2022-11-20T15:15:35;9.80;99.90
34837;DHT22;21053;50.848;4.652;2022-11-20T15:18:04;9.70;99.90
34837;DHT22;21053;50.848;4.652;2022-11-20T15:20:32;9.60;99.90
34837;DHT22;21053;50.848;4.652;2022-11-20T15:22:59;9.60;99.90
34837;DHT22;21053;50.848;4.652;2022-11-20T15:25:26;9.60;99.90
34837;DHT22;21053;50.848;4.652;2022-11-20T15:27:58;9.60;99.90
34837;DHT22;21053;50.848;4.652;2022-11-20T15:30:26;9.60;99.90
34837;DHT22;21053;50.848;4.652;2022-11-20T15:32:53;9.60;99.90
34837;DHT22;21053;50.848;4.652;2022-11-20T15:35:21;9.70;99.90
34837;DHT22;21053;50.848;4.652;2022-11-20T15:37:50;9.70;99.90
34837;DHT22;21053;50.848;4.652;2022-11-20T15:40:21;10.40;99.90
34837;DHT22;21053;50.848;4.652;2022-11-20T15:42:50;9.90;99.90
34837;DHT22;21053;50.848;4.652;2022-11-20T15:45:49;9.80;99.90
34837;DHT22;21053;50.848;4.652;2022-11-20T15:48:36;9.90;99.90
34837;DHT22;21053;50.848;4.652;2022-11-20T15:51:35;9.90;99.90
34837;DHT22;21053;50.848;4.652;2022-11-20T15:54:13;9.90;99.90
34837;DHT22;21053;50.848;4.652;2022-11-20T15:56:41;9.90;99.90
34837;DHT22;21053;50.848;4.652;2022-11-20T15:59:09;9.90;99.90
34837;DHT22;21053;50.848;4.652;2022-11-20T16:01:38;9.80;99.90
34837;DHT22;21053;50.848;4.652;2022-11-20T16:04:15;9.70;99.90
34837;DHT22;21053;50.848;4.652;2022-11-20T16:06:43;9.80;99.90
34837;DHT22;21053;50.848;4.652;2022-11-20T16:09:12;9.80;99.90
34837;DHT22;21053;50.848;4.652;2022-11-20T16:11:39;9.80;99.90
34837;DHT22;21053;50.848;4.652;2022-11-20T16:14:10;9.80;99.90
34837;DHT22;21053;50.848;4.652;2022-11-20T16:16:57;9.80;99.90
34837;DHT22;21053;50.848;4.652;2022-11-20T16:19:24;9.90;99.90
34837;DHT22;21053;50.848;4.652;2022-11-20T16:21:50;9.90;99.90
34837;DHT22;21053;50.848;4.652;2022-11-20T16:24:23;9.90;99.90
34837;DHT22;21053;50.848;4.652;2022-11-20T16:26:56;9.80;99.90
34837;DHT22;21053;50.848;4.652;2022-11-20T16:29:24;9.80;99.90
34837;DHT22;21053;50.848;4.652;2022-11-20T16:31:50;9.70;99.90
34837;DHT22;21053;50.848;4.652;2022-11-20T16:34:19;9.60;99.90
34837;DHT22;21053;50.848;4.652;2022-11-20T16:36:46;9.60;99.90
34837;DHT22;21053;50.848;4.652;2022-11-20T16:39:13;9.50;99.90
34837;DHT22;21053;50.848;4.652;2022-11-20T16:41:41;9.70;99.90
34837;DHT22;21053;50.848;4.652;2022-11-20T16:44:08;9.70;99.90
34837;DHT22;21053;50.848;4.652;2022-11-20T16:46:36;9.50;99.90
34837;DHT22;21053;50.848;4.652;2022-11-20T16:49:05;9.50;99.90
34837;DHT22;21053;50.848;4.652;2022-11-20T16:51:34;9.60;99.90
34837;DHT22;21053;50.848;4.652;2022-11-20T16:54:05;9.70;99.90
34837;DHT22;21053;50.848;4.652;2022-11-20T16:56:35;9.80;99.90
34837;DHT22;21053;50.848;4.652;2022-11-20T16:59:04;9.90;99.90
34837;DHT22;21053;50.848;4.652;2022-11-20T17:01:33;9.90;99.90
34837;DHT22;21053;50.848;4.652;2022-11-20T17:04:03;9.90;99.90
34837;DHT22;21053;50.848;4.652;2022-11-20T17:06:41;9.90;99.90
34837;DHT22;21053;50.848;4.652;2022-11-20T17:09:10;9.80;99.90
34837;DHT22;21053;50.848;4.652;2022-11-20T17:11:38;9.70;99.90
34837;DHT22;21053;50.848;4.652;2022-11-20T17:14:05;9.60;99.90
34837;DHT22;21053;50.848;4.652;2022-11-20T17:16:37;9.60;99.90
34837;DHT22;21053;50.848;4.652;2022-11-20T17:19:06;9.50;99.90
34837;DHT22;21053;50.848;4.652;2022-11-20T17:21:37;9.60;99.90
34837;DHT22;21053;50.848;4.652;2022-11-20T17:24:12;9.50;99.90
34837;DHT22;21053;50.848;4.652;2022-11-20T17:26:47;9.50;99.90
34837;DHT22;21053;50.848;4.652;2022-11-20T17:29:19;9.50;99.90
34837;DHT22;21053;50.848;4.652;2022-11-20T17:31:50;9.50;99.90
34837;DHT22;21053;50.848;4.652;2022-11-20T17:34:22;9.50;99.90
34837;DHT22;21053;50.848;4.652;2022-11-20T17:36:48;9.30;99.90
34837;DHT22;21053;50.848;4.652;2022-11-20T17:39:15;9.20;99.90
34837;DHT22;21053;50.848;4.652;2022-11-20T17:41:45;9.00;99.90
34837;DHT22;21053;50.848;4.652;2022-11-20T17:44:32;8.90;99.90